createdAt,value
2018-06-24T00:01:27.803Z,101839.50
2018-06-24T00:03:56.038Z,101845.00
2018-06-24T00:06:24.243Z,101837.28
2018-06-24T00:08:52.593Z,101839.59
2018-06-24T00:11:20.818Z,101833.77
2018-06-24T00:13:49.102Z,101834.25
2018-06-24T00:16:17.336Z,101830.03
2018-06-24T00:18:45.869Z,101833.33
2018-06-24T00:21:14.101Z,101828.12
2018-06-24T00:23:42.329Z,101836.76
2018-06-24T00:26:10.560Z,101834.23
2018-06-24T00:28:38.796Z,101827.91
2018-06-24T00:31:07.038Z,101830.94
2018-06-24T00:33:35.295Z,101831.23
2018-06-24T00:36:03.542Z,101833.55
2018-06-24T00:38:31.753Z,101827.23
2018-06-24T00:41:00.109Z,101821.19
2018-06-24T00:43:28.324Z,101829.47
2018-06-24T00:45:56.541Z,101830.09
2018-06-24T00:48:24.816Z,101832.75
2018-06-24T00:50:53.129Z,101826.72
2018-06-24T00:53:21.357Z,101816.89
2018-06-24T00:55:49.573Z,101822.71
2018-06-24T00:58:17.864Z,101822.36
2018-06-24T01:00:46.113Z,101822.36
2018-06-24T01:03:14.369Z,101813.52
2018-06-24T01:05:42.597Z,101816.31
2018-06-24T01:08:10.816Z,101809.30
2018-06-24T01:10:39.076Z,101808.94
2018-06-24T01:13:07.362Z,101801.95
2018-06-24T01:15:35.646Z,101799.13
2018-06-24T01:18:03.909Z,101798.63
2018-06-24T01:20:32.200Z,101794.77
2018-06-24T01:23:00.505Z,101794.28
2018-06-24T01:25:28.729Z,101797.44
2018-06-24T01:27:57.048Z,101775.97
2018-06-24T01:30:25.248Z,101775.69
2018-06-24T01:32:53.497Z,101774.85
2018-06-24T01:35:21.832Z,101776.19
2018-06-24T01:37:50.088Z,101773.38
2018-06-24T01:40:18.351Z,101765.87
2018-06-24T01:42:46.650Z,101768.05
2018-06-24T01:45:14.879Z,101765.37
2018-06-24T01:47:43.090Z,101756.05
2018-06-24T01:50:11.349Z,101749.88
2018-06-24T01:52:39.626Z,101749.88
2018-06-24T01:55:07.897Z,101741.52
2018-06-24T01:57:36.168Z,101742.23
2018-06-24T02:00:04.800Z,101744.40
2018-06-24T02:02:33.017Z,101743.07
2018-06-24T02:05:01.787Z,101735.56
2018-06-24T02:07:30.038Z,101741.73
2018-06-24T02:09:58.252Z,101744.53
2018-06-24T02:12:26.489Z,101745.38
2018-06-24T02:14:54.728Z,101751.42
2018-06-24T02:17:22.944Z,101747.77
2018-06-24T02:19:51.231Z,101747.28
2018-06-24T02:22:19.435Z,101742.94
2018-06-24T02:24:47.663Z,101739.78
2018-06-24T02:27:15.876Z,101739.78
2018-06-24T02:29:44.101Z,101737.46
2018-06-24T02:32:12.360Z,101732.13
2018-06-24T02:34:40.587Z,101731.15
2018-06-24T02:37:08.831Z,101729.11
2018-06-24T02:39:37.086Z,101732.75
2018-06-24T02:42:05.420Z,101729.52
2018-06-24T02:44:33.662Z,101742.28
2018-06-24T02:47:01.910Z,101750.59
2018-06-24T02:49:30.226Z,101740.55
2018-06-24T02:51:58.449Z,101742.37
2018-06-24T02:54:26.737Z,101747.48
2018-06-24T02:56:55.026Z,101739.63
2018-06-24T02:59:23.248Z,101742.34
2018-06-24T03:01:51.456Z,101736.61
2018-06-24T03:04:19.726Z,101740.44
2018-06-24T03:06:48.021Z,101745.06
2018-06-24T03:09:16.285Z,101741.06
2018-06-24T03:11:44.492Z,101742.88
2018-06-24T03:14:12.701Z,101743.38
2018-06-24T03:16:40.957Z,101739.73
2018-06-24T03:19:09.233Z,101745.41
2018-06-24T03:21:37.472Z,101741.06
2018-06-24T03:24:06.066Z,101741.23
2018-06-24T03:26:34.315Z,101740.16
2018-06-24T03:29:02.509Z,101740.16
2018-06-24T03:31:30.758Z,101734.70
2018-06-24T03:33:59.019Z,101733.02
2018-06-24T03:36:27.258Z,101740.38
2018-06-24T03:38:55.476Z,101733.02
2018-06-24T03:41:23.793Z,101732.39
2018-06-24T03:43:52.002Z,101736.03
2018-06-24T03:46:20.271Z,101736.66
2018-06-24T03:48:48.533Z,101744.78
2018-06-24T03:51:16.857Z,101743.32
2018-06-24T03:53:45.086Z,101740.66
2018-06-24T03:56:13.320Z,101742.48
2018-06-24T03:58:41.545Z,101745.63
2018-06-24T04:01:09.881Z,101746.61
2018-06-24T04:03:38.211Z,101737.91
2018-06-24T04:06:06.454Z,101745.19
2018-06-24T04:08:34.720Z,101741.45
2018-06-24T04:11:02.985Z,101746.24
2018-06-24T04:13:31.196Z,101745.98
2018-06-24T04:16:07.461Z,101741.64
2018-06-24T04:18:43.629Z,101752.42
2018-06-24T04:21:13.864Z,101749.19
2018-06-24T04:23:43.375Z,101747.63
2018-06-24T04:26:11.969Z,101752.90
2018-06-24T04:28:40.482Z,101758.36
2018-06-24T04:31:09.694Z,101764.05
2018-06-24T04:33:37.904Z,101766.70
2018-06-24T04:36:06.469Z,101767.06
2018-06-24T04:38:34.767Z,101757.03
2018-06-24T04:41:03.193Z,101753.66
2018-06-24T04:43:31.513Z,101755.95
2018-06-24T04:46:01.427Z,101757.65
2018-06-24T04:48:29.785Z,101759.82
2018-06-24T04:50:58.045Z,101763.59
2018-06-24T04:53:26.260Z,101765.28
2018-06-24T04:55:54.534Z,101776.29
2018-06-24T04:58:22.816Z,101768.43
2018-06-24T05:00:51.143Z,101763.33
2018-06-24T05:03:19.364Z,101759.69
2018-06-24T05:05:47.639Z,101765.24
2018-06-24T05:08:15.924Z,101768.72
2018-06-24T05:10:44.646Z,101761.80
2018-06-24T05:13:12.985Z,101765.87
2018-06-24T05:15:41.274Z,101763.92
2018-06-24T05:18:09.545Z,101764.64
2018-06-24T05:20:37.796Z,101760.41
2018-06-24T05:23:06.068Z,101764.59
2018-06-24T05:25:34.385Z,101761.17
2018-06-24T05:28:02.621Z,101774.50
2018-06-24T05:30:30.878Z,101777.88
2018-06-24T05:32:59.637Z,101779.42
2018-06-24T05:35:27.920Z,101788.63
2018-06-24T05:37:56.209Z,101788.67
2018-06-24T05:40:24.469Z,101783.44
2018-06-24T05:42:52.803Z,101787.88
2018-06-24T05:45:21.028Z,101783.97
2018-06-24T05:47:49.401Z,101785.48
2018-06-24T05:50:17.644Z,101793.78
2018-06-24T05:52:45.901Z,101785.25
2018-06-24T05:55:14.199Z,101790.98
2018-06-24T05:57:42.422Z,101787.42
2018-06-24T06:00:16.222Z,101792.13
2018-06-24T06:02:44.541Z,101797.90
2018-06-24T06:05:12.788Z,101796.27
2018-06-24T06:07:41.030Z,101800.06
2018-06-24T06:10:09.372Z,101799.80
2018-06-24T06:12:37.689Z,101797.03
2018-06-24T06:15:06.010Z,101797.60
2018-06-24T06:17:34.221Z,101798.66
2018-06-24T06:20:02.495Z,101805.41
2018-06-24T06:22:30.709Z,101799.41
2018-06-24T06:24:59.152Z,101797.59
2018-06-24T06:27:27.417Z,101799.63
2018-06-24T06:29:55.685Z,101796.95
2018-06-24T06:32:23.953Z,101797.80
2018-06-24T06:34:52.219Z,101803.48
2018-06-24T06:37:20.454Z,101799.14
2018-06-24T06:39:48.743Z,101797.66
2018-06-24T06:42:16.956Z,101795.34
2018-06-24T06:44:45.216Z,101800.09
2018-06-24T06:47:13.509Z,101800.66
2018-06-24T06:49:41.818Z,101797.18
2018-06-24T06:52:10.095Z,101800.41
2018-06-24T06:54:38.620Z,101791.98
2018-06-24T06:57:07.836Z,101803.58
2018-06-24T06:59:36.064Z,101801.94
2018-06-24T07:02:04.345Z,101794.00
2018-06-24T07:04:32.601Z,101798.91
2018-06-24T07:07:00.936Z,101804.50
2018-06-24T07:09:29.220Z,101802.73
2018-06-24T07:11:57.467Z,101799.99
2018-06-24T07:14:25.721Z,101806.92
2018-06-24T07:16:54.093Z,101805.16
2018-06-24T07:19:22.353Z,101807.39
2018-06-24T07:21:50.624Z,101811.61
2018-06-24T07:24:18.874Z,101811.50
2018-06-24T07:26:47.085Z,101811.85
2018-06-24T07:29:15.333Z,101812.05
2018-06-24T07:31:43.601Z,101817.61
2018-06-24T07:34:11.876Z,101814.19
2018-06-24T07:36:40.099Z,101816.63
2018-06-24T07:39:09.984Z,101816.40
2018-06-24T07:41:38.216Z,101808.78
2018-06-24T07:44:06.452Z,101815.53
2018-06-24T07:46:34.804Z,101822.84
2018-06-24T07:49:03.085Z,101827.99
2018-06-24T07:51:31.337Z,101834.47
2018-06-24T07:53:59.607Z,101834.09
2018-06-24T07:56:27.928Z,101833.16
2018-06-24T07:58:56.157Z,101837.31
2018-06-24T08:01:24.505Z,101843.01
2018-06-24T08:03:52.757Z,101836.22
2018-06-24T08:06:20.976Z,101837.41
2018-06-24T08:08:49.257Z,101835.78
2018-06-24T08:11:17.495Z,101836.80
2018-06-24T08:13:45.700Z,101835.31
2018-06-24T08:16:13.961Z,101832.84
2018-06-24T08:18:42.197Z,101830.23
2018-06-24T08:21:10.450Z,101830.23
2018-06-24T08:23:38.632Z,101834.81
2018-06-24T08:26:07.013Z,101836.65
2018-06-24T08:28:35.236Z,101834.97
2018-06-24T08:31:03.533Z,101839.81
2018-06-24T08:33:31.801Z,101839.81
2018-06-24T08:36:00.019Z,101845.02
2018-06-24T08:38:28.276Z,101839.03
2018-06-24T08:40:56.533Z,101836.91
2018-06-24T08:43:24.781Z,101835.80
2018-06-24T08:45:53.043Z,101836.41
2018-06-24T08:48:21.318Z,101831.80
2018-06-24T08:50:49.552Z,101833.36
2018-06-24T08:53:17.921Z,101838.47
2018-06-24T08:55:46.261Z,101829.12
2018-06-24T08:58:14.488Z,101834.17
2018-06-24T09:00:42.776Z,101839.08
2018-06-24T09:03:10.959Z,101836.60
2018-06-24T09:05:39.208Z,101837.14
2018-06-24T09:08:07.477Z,101839.34
2018-06-24T09:10:35.768Z,101833.64
2018-06-24T09:13:04.021Z,101841.02
2018-06-24T09:15:32.296Z,101842.21
2018-06-24T09:18:00.591Z,101835.67
2018-06-24T09:20:28.813Z,101837.93
2018-06-24T09:22:57.068Z,101839.12
2018-06-24T09:25:25.332Z,101845.18
2018-06-24T09:27:53.632Z,101841.52
2018-06-24T09:30:21.849Z,101841.52
2018-06-24T09:32:50.109Z,101840.50
2018-06-24T09:35:18.378Z,101840.32
2018-06-24T09:37:46.600Z,101846.86
2018-06-24T09:40:14.848Z,101840.16
2018-06-24T09:42:43.170Z,101836.36
2018-06-24T09:45:11.463Z,101832.00
2018-06-24T09:47:39.693Z,101834.68
2018-06-24T09:50:08.324Z,101829.52
2018-06-24T09:52:36.633Z,101832.12
2018-06-24T09:55:04.915Z,101827.13
2018-06-24T09:57:33.195Z,101830.20
2018-06-24T10:00:01.433Z,101831.23
2018-06-24T10:02:29.736Z,101825.48
2018-06-24T10:04:58.009Z,101834.02
2018-06-24T10:07:26.281Z,101828.21
2018-06-24T10:09:54.532Z,101828.07
2018-06-24T10:12:22.819Z,101824.29
2018-06-24T10:14:51.048Z,101826.51
2018-06-24T10:17:19.257Z,101824.18
2018-06-24T10:19:47.478Z,101818.37
2018-06-24T10:22:15.762Z,101821.42
2018-06-24T10:24:44.004Z,101823.61
2018-06-24T10:27:12.274Z,101820.47
2018-06-24T10:29:40.672Z,101820.20
2018-06-24T10:32:08.910Z,101827.27
2018-06-24T10:34:37.212Z,101818.11
2018-06-24T10:37:05.528Z,101821.35
2018-06-24T10:39:33.757Z,101825.75
2018-06-24T10:42:02.013Z,101827.77
2018-06-24T10:44:30.258Z,101827.98
2018-06-24T10:46:58.589Z,101830.16
2018-06-24T10:49:26.924Z,101829.16
2018-06-24T10:51:55.233Z,101821.69
2018-06-24T10:54:23.446Z,101822.42
2018-06-24T10:56:51.701Z,101816.82
2018-06-24T10:59:19.918Z,101812.31
2018-06-24T11:01:48.277Z,101815.18
2018-06-24T11:04:16.626Z,101823.57
2018-06-24T11:06:44.873Z,101816.70
2018-06-24T11:09:13.073Z,101814.02
2018-06-24T11:11:41.372Z,101813.34
2018-06-24T11:14:09.651Z,101814.67
2018-06-24T11:16:38.132Z,101807.27
2018-06-24T11:19:06.504Z,101810.27
2018-06-24T11:21:34.769Z,101813.80
2018-06-24T11:24:03.113Z,101808.76
2018-06-24T11:26:31.345Z,101801.06
2018-06-24T11:28:59.628Z,101802.41
2018-06-24T11:31:27.889Z,101811.97
2018-06-24T11:33:56.140Z,101805.27
2018-06-24T11:36:24.403Z,101804.27
2018-06-24T11:38:52.616Z,101799.23
2018-06-24T11:41:20.865Z,101804.58
2018-06-24T11:43:49.105Z,101805.11
2018-06-24T11:46:17.404Z,101803.23
2018-06-24T11:48:45.693Z,101800.39
2018-06-24T11:51:13.916Z,101800.89
2018-06-24T11:53:42.181Z,101806.06
2018-06-24T11:56:10.469Z,101805.56
2018-06-24T11:58:38.736Z,101802.83
2018-06-24T12:01:07.020Z,101801.65
2018-06-24T12:03:35.334Z,101798.12
2018-06-24T12:06:03.740Z,101796.66
2018-06-24T12:08:32.025Z,101798.67
2018-06-24T12:11:00.361Z,101805.59
2018-06-24T12:13:28.694Z,101794.68
2018-06-24T12:15:56.976Z,101790.81
2018-06-24T12:18:25.238Z,101793.16
2018-06-24T12:20:53.488Z,101782.58
2018-06-24T12:23:21.760Z,101784.73
2018-06-24T12:25:50.013Z,101782.66
2018-06-24T12:28:18.278Z,101781.64
2018-06-24T12:30:46.617Z,101785.17
2018-06-24T12:33:14.856Z,101783.72
2018-06-24T12:35:43.878Z,101782.05
2018-06-24T12:38:12.109Z,101781.74
2018-06-24T12:40:40.424Z,101774.02
2018-06-24T12:43:08.693Z,101774.36
2018-06-24T12:45:36.984Z,101777.04
2018-06-24T12:48:05.434Z,101780.36
2018-06-24T12:50:33.707Z,101778.34
2018-06-24T12:53:02.063Z,101772.58
2018-06-24T12:55:31.548Z,101785.34
2018-06-24T12:57:59.786Z,101777.29
2018-06-24T13:00:28.676Z,101771.57
2018-06-24T13:02:56.529Z,101778.17
2018-06-24T13:05:24.891Z,101773.98
2018-06-24T13:07:53.249Z,101772.17
2018-06-24T13:10:21.679Z,101773.02
2018-06-24T13:12:50.396Z,101765.63
2018-06-24T13:15:18.751Z,101769.31
2018-06-24T13:17:47.077Z,101763.77
2018-06-24T13:20:15.449Z,101761.42
2018-06-24T13:22:43.863Z,101768.81
2018-06-24T13:25:12.445Z,101763.77
2018-06-24T13:27:40.797Z,101764.11
2018-06-24T13:30:09.189Z,101761.42
2018-06-24T13:32:37.512Z,101756.89
2018-06-24T13:35:05.838Z,101755.88
2018-06-24T13:37:34.252Z,101757.56
2018-06-24T13:40:05.002Z,101757.39
2018-06-24T13:42:33.250Z,101767.92
2018-06-24T13:45:01.625Z,101764.23
2018-06-24T13:47:29.893Z,101762.93
2018-06-24T13:49:58.160Z,101768.48
2018-06-24T13:52:26.465Z,101759.10
2018-06-24T13:54:54.726Z,101755.91
2018-06-24T13:57:22.973Z,101758.45
2018-06-24T13:59:51.285Z,101766.31
2018-06-24T14:02:19.608Z,101762.98
2018-06-24T14:04:47.851Z,101756.27
2018-06-24T14:07:16.090Z,101754.42
2018-06-24T14:09:44.432Z,101764.33
2018-06-24T14:12:12.748Z,101766.32
2018-06-24T14:14:41.157Z,101764.98
2018-06-24T14:17:09.436Z,101766.51
2018-06-24T14:19:37.860Z,101765.83
2018-06-24T14:22:06.213Z,101765.69
2018-06-24T14:24:34.546Z,101764.66
2018-06-24T14:27:03.039Z,101759.81
2018-06-24T14:29:31.351Z,101762.66
2018-06-24T14:31:59.609Z,101766.51
2018-06-24T14:34:27.865Z,101754.22
2018-06-24T14:36:57.102Z,101747.38
2018-06-24T14:39:25.346Z,101757.59
2018-06-24T14:41:53.553Z,101755.25
2018-06-24T14:44:21.936Z,101750.38
2018-06-24T14:46:50.275Z,101752.92
2018-06-24T14:49:18.589Z,101751.58
2018-06-24T14:51:47.097Z,101749.38
2018-06-24T14:54:15.766Z,101754.43
2018-06-24T14:56:44.137Z,101756.63
2018-06-24T14:59:12.435Z,101760.62
2018-06-24T15:01:40.776Z,101763.81
2018-06-24T15:04:09.129Z,101760.98
2018-06-24T15:06:37.555Z,101762.31
2018-06-24T15:09:08.092Z,101759.95
2018-06-24T15:11:37.592Z,101769.37
2018-06-24T15:14:06.229Z,101761.27
2018-06-24T15:16:34.885Z,101756.55
2018-06-24T15:19:03.241Z,101754.20
2018-06-24T15:21:31.518Z,101757.53
2018-06-24T15:23:59.855Z,101763.25
2018-06-24T15:26:28.153Z,101756.05
2018-06-24T15:28:56.453Z,101758.05
2018-06-24T15:31:25.049Z,101750.84
2018-06-24T15:33:53.356Z,101750.16
2018-06-24T15:36:21.745Z,101755.88
2018-06-24T15:38:50.081Z,101756.90
2018-06-24T15:41:18.397Z,101758.89
2018-06-24T15:43:46.667Z,101756.85
2018-06-24T15:46:15.013Z,101752.68
2018-06-24T15:48:46.184Z,101749.82
2018-06-24T15:51:17.982Z,101749.98
2018-06-24T15:53:46.523Z,101752.98
2018-06-24T15:56:14.885Z,101745.60
2018-06-24T15:58:43.180Z,101744.08
2018-06-24T16:01:11.537Z,101752.14
2018-06-24T16:03:39.920Z,101742.55
2018-06-24T16:06:08.237Z,101750.08
2018-06-24T16:08:37.206Z,101743.39
2018-06-24T16:11:05.792Z,101742.70
2018-06-24T16:13:34.483Z,101741.69
2018-06-24T16:16:02.874Z,101741.64
2018-06-24T16:18:31.377Z,101742.67
2018-06-24T16:21:01.162Z,101741.32
2018-06-24T16:23:29.818Z,101744.53
2018-06-24T16:25:58.335Z,101739.23
2018-06-24T16:28:27.160Z,101727.22
2018-06-24T16:30:56.666Z,101730.41
2018-06-24T16:33:25.127Z,101735.44
2018-06-24T16:35:53.583Z,101732.56
2018-06-24T16:38:22.008Z,101731.23
2018-06-24T16:40:51.047Z,101728.02
2018-06-24T16:43:19.386Z,101728.36
2018-06-24T16:45:47.985Z,101735.89
2018-06-24T16:48:17.083Z,101733.16
2018-06-24T16:50:45.707Z,101737.30
2018-06-24T16:53:14.157Z,101739.31
2018-06-24T16:55:42.657Z,101737.45
2018-06-24T16:58:11.693Z,101741.13
2018-06-24T17:00:39.937Z,101742.13
2018-06-24T17:03:08.221Z,101744.30
2018-06-24T17:05:36.505Z,101742.97
2018-06-24T17:08:04.869Z,101746.14
2018-06-24T17:10:33.186Z,101739.88
2018-06-24T17:13:01.578Z,101746.09
2018-06-24T17:15:29.853Z,101741.23
2018-06-24T17:17:58.109Z,101747.24
2018-06-24T17:20:26.448Z,101745.25
2018-06-24T17:22:54.961Z,101752.28
2018-06-24T17:25:23.317Z,101751.32
2018-06-24T17:27:51.580Z,101748.27
2018-06-24T17:30:19.809Z,101750.27
2018-06-24T17:32:48.181Z,101747.75
2018-06-24T17:35:16.481Z,101745.23
2018-06-24T17:37:44.841Z,101748.41
2018-06-24T17:40:13.080Z,101748.91
2018-06-24T17:42:41.317Z,101748.06
2018-06-24T17:45:09.705Z,101746.22
2018-06-24T17:47:38.230Z,101743.70
2018-06-24T17:50:06.381Z,101733.98
2018-06-24T17:52:34.609Z,101742.36
2018-06-24T17:55:02.808Z,101743.86
2018-06-24T17:57:31.060Z,101736.16
2018-06-24T17:59:59.961Z,101735.14
2018-06-24T18:02:28.217Z,101741.83
2018-06-24T18:04:56.492Z,101733.95
2018-06-24T18:07:24.824Z,101735.64
2018-06-24T18:09:53.120Z,101733.43
2018-06-24T18:12:21.453Z,101732.75
2018-06-24T18:14:49.725Z,101736.08
2018-06-24T18:17:17.981Z,101732.72
2018-06-24T18:19:46.204Z,101729.69
2018-06-24T18:22:14.440Z,101732.88
2018-06-24T18:24:42.697Z,101729.19
2018-06-24T18:27:10.969Z,101732.03
2018-06-24T18:29:39.271Z,101734.37
2018-06-24T18:32:07.518Z,101730.84
2018-06-24T18:34:35.748Z,101734.05
2018-06-24T18:37:04.125Z,101735.39
2018-06-24T18:39:32.404Z,101739.23
2018-06-24T18:42:00.626Z,101738.05
2018-06-24T18:44:28.881Z,101729.32
2018-06-24T18:46:57.093Z,101725.12
2018-06-24T18:49:25.391Z,101730.13
2018-06-24T18:51:53.609Z,101732.97
2018-06-24T18:54:22.034Z,101725.58
2018-06-24T18:56:50.310Z,101727.92
2018-06-24T18:59:18.657Z,101725.92
2018-06-24T19:01:46.994Z,101731.94
2018-06-24T19:04:15.209Z,101724.55
2018-06-24T19:06:43.417Z,101726.58
2018-06-24T19:09:13.312Z,101723.22
2018-06-24T19:11:41.960Z,101722.53
2018-06-24T19:14:10.240Z,101726.52
2018-06-24T19:16:39.120Z,101723.14
2018-06-24T19:19:07.421Z,101724.33
2018-06-24T19:21:35.644Z,101729.84
2018-06-24T19:24:03.989Z,101721.47
2018-06-24T19:26:32.252Z,101723.14
2018-06-24T19:29:00.641Z,101725.17
2018-06-24T19:31:28.894Z,101734.20
2018-06-24T19:33:57.125Z,101733.02
2018-06-24T19:36:25.341Z,101727.81
2018-06-24T19:38:53.869Z,101734.50
2018-06-24T19:41:22.136Z,101735.84
2018-06-24T19:43:50.400Z,101735.84
2018-06-24T19:46:18.632Z,101738.02
2018-06-24T19:48:46.864Z,101737.83
2018-06-24T19:51:15.093Z,101737.48
2018-06-24T19:53:43.333Z,101740.81
2018-06-24T19:56:11.565Z,101741.81
2018-06-24T19:58:39.777Z,101746.13
2018-06-24T20:01:08.021Z,101750.83
2018-06-24T20:03:36.280Z,101749.49
2018-06-24T20:06:04.564Z,101750.48
2018-06-24T20:08:32.792Z,101748.11
2018-06-24T20:11:01.061Z,101751.06
2018-06-24T20:13:29.314Z,101754.39
2018-06-24T20:15:57.506Z,101762.22
2018-06-24T20:18:25.746Z,101761.03
2018-06-24T20:20:53.977Z,101762.72
2018-06-24T20:23:22.177Z,101762.03
2018-06-24T20:25:50.505Z,101774.25
2018-06-24T20:28:18.777Z,101772.08
2018-06-24T20:30:46.992Z,101775.91
2018-06-24T20:33:15.190Z,101783.09
2018-06-24T20:35:43.477Z,101790.95
2018-06-24T20:38:11.753Z,101785.61
2018-06-24T20:40:40.077Z,101790.41
2018-06-24T20:43:08.301Z,101782.69
2018-06-24T20:45:36.507Z,101775.80
2018-06-24T20:48:04.921Z,101774.27
2018-06-24T20:50:33.169Z,101781.63
2018-06-24T20:53:01.418Z,101783.62
2018-06-24T20:55:29.657Z,101781.78
2018-06-24T20:57:57.880Z,101781.94
2018-06-24T21:00:26.085Z,101785.25
2018-06-24T21:02:54.344Z,101789.22
2018-06-24T21:05:22.574Z,101792.91
2018-06-24T21:07:50.855Z,101802.55
2018-06-24T21:10:19.065Z,101800.61
2018-06-24T21:12:47.265Z,101799.98
2018-06-24T21:15:15.481Z,101802.95
2018-06-24T21:17:43.716Z,101796.53
2018-06-24T21:20:11.945Z,101801.32
2018-06-24T21:22:40.277Z,101806.58
2018-06-24T21:25:08.539Z,101803.84
2018-06-24T21:27:36.828Z,101800.80
2018-06-24T21:30:05.268Z,101810.78
2018-06-24T21:32:33.516Z,101809.38
2018-06-24T21:35:01.744Z,101810.86
2018-06-24T21:37:29.993Z,101813.05
2018-06-24T21:39:58.213Z,101801.02
2018-06-24T21:42:26.486Z,101803.05
2018-06-24T21:44:54.754Z,101809.73
2018-06-24T21:47:22.980Z,101809.38
2018-06-24T21:49:51.431Z,101806.22
2018-06-24T21:52:19.640Z,101796.72
2018-06-24T21:54:47.861Z,101803.05
2018-06-24T21:57:16.093Z,101805.38
2018-06-24T21:59:44.316Z,101805.03
2018-06-24T22:02:12.597Z,101792.86
2018-06-24T22:04:40.772Z,101793.21
2018-06-24T22:07:09.036Z,101788.59
2018-06-24T22:09:37.273Z,101803.28
2018-06-24T22:12:05.597Z,101796.59
2018-06-24T22:14:33.814Z,101794.59
2018-06-24T22:17:02.025Z,101794.39
2018-06-24T22:19:30.284Z,101802.20
2018-06-24T22:21:58.571Z,101807.83
2018-06-24T22:24:27.018Z,101809.45
2018-06-24T22:26:55.229Z,101816.76
2018-06-24T22:29:23.435Z,101805.41
2018-06-24T22:31:51.674Z,101811.77
2018-06-24T22:34:19.924Z,101805.58
2018-06-24T22:36:48.154Z,101803.61
2018-06-24T22:39:16.382Z,101803.26
2018-06-24T22:41:44.585Z,101802.73
2018-06-24T22:44:12.825Z,101801.89
2018-06-24T22:46:41.073Z,101799.71
2018-06-24T22:49:09.293Z,101796.48
2018-06-24T22:51:37.573Z,101797.12
2018-06-24T22:54:06.041Z,101793.61
2018-06-24T22:56:34.268Z,101797.12
2018-06-24T22:59:13.896Z,101796.34
2018-06-24T23:01:42.152Z,101799.99
2018-06-24T23:04:10.381Z,101798.80
2018-06-24T23:06:38.645Z,101806.33
2018-06-24T23:09:07.993Z,101806.04
2018-06-24T23:11:36.223Z,101799.50
2018-06-24T23:14:04.487Z,101807.66
2018-06-24T23:16:32.748Z,101806.25
2018-06-24T23:19:00.956Z,101801.55
2018-06-24T23:21:29.187Z,101800.21
2018-06-24T23:23:57.550Z,101808.92
2018-06-24T23:26:25.773Z,101803.80
2018-06-24T23:28:53.998Z,101805.48
2018-06-24T23:31:22.229Z,101808.58
2018-06-24T23:33:50.505Z,101804.85
2018-06-24T23:36:18.800Z,101801.52
2018-06-24T23:38:47.009Z,101799.83
2018-06-24T23:41:15.236Z,101795.82
2018-06-24T23:43:43.690Z,101793.64
2018-06-24T23:46:11.924Z,101791.11
2018-06-24T23:48:40.216Z,101791.61
2018-06-24T23:51:08.520Z,101797.44
2018-06-24T23:53:36.733Z,101795.12
2018-06-24T23:56:04.944Z,101792.09
2018-06-24T23:58:33.160Z,101789.57
